Jacksonville, FL (32257)

7:11 AM EDT on April 24, 2017 (GMT -0400)
Spanish Wells | | Change Station

Elev 26 ft 30.21 °N, 81.61 °W | Updated 55 seconds ago

Partly Cloudy
Partly Cloudy
68.6 °F
Feels Like 68.6 °F
N
0.0
Wind Variable Wind from ESE

Today
High -- | Low -- °F
--% Chance of Precip.
Yesterday
High -- | Low -- °F
Precip. -- in
Pressure 29.70 in
Visibility 10.0 miles
Clouds Few 1800 ft
Mostly Cloudy 4300 ft
Mostly Cloudy 6500 ft
Mostly Cloudy 25000 ft
Dew Point 64 °F
Humidity 86%
Rainfall 0.00 in
Snow Depth Not available.
6:49 AM 7:59 PM
Waning Crescent, 6% visible
METAR KNIP 241053Z 24006KT 10SM FEW018 BKN043 BKN065 BKN250 21/19 A2971 RMK AO2 SLP057 T02110189
Pressure 29.70 in
Visibility 10.0 miles
Clouds Few 1800 ft
Mostly Cloudy 4300 ft
Mostly Cloudy 6500 ft
Mostly Cloudy 25000 ft
Dew Point 64 °F
Humidity 86%
Rainfall 0.00 in
Snow Depth Not available.
6:49 AM 7:59 PM
Waning Crescent, 6% visible
METAR KNIP 241053Z 24006KT 10SM FEW018 BKN043 BKN065 BKN250 21/19 A2971 RMK AO2 SLP057 T02110189

Get Severe Weather Alerts

Thanks for signing up!

Be on the lookout for a verification email in your inbox.

You'll start receiving the daily forecast at 8 AM.

×

10-Day Weather Forecast

Almanac

Astronomy

Apr. 24, 2017 Rise Set
Actual Time
Civil Twilight
Nautical Twilight
Astronomical Twilight
Moon
Length of Visible Light
Length of Day
Tomorrow will be .
, % of the Moon is Illuminated

Today's Extremes

State Highs State Lows

Community

WunderPhotos

WunderBlog® & News

Nearby

Air Quality

  Air Quality AQ Index Pollutant
Not available.

Snow Depth

Station Depth Elevation

Earthquake Activity

City Distance Mag. Time & Date
Minimum magnitude displayed is 2.5.

Coastal Water Temperatures

Place Temperature

Stations

Nearby Weather Stations

Station Location Temp. Windchill Dew Point Humidity Wind Precip. Elev Updated Type
                   

Watches & Warnings

There are currently no watches in effect.